Time;durP1;ratioP1;P1;durP2;ratioP2;P2;SDS_P1;SDS_P2;PMS_P1;PMS_P2;Temp;Humidity;BMP_temperature;BMP_pressure;BME280_temperature;BME280_humidity;BME280_pressure;Samples;Min_cycle;Max_cycle;Signal;HPM_P1;HPM_P2
2024/01/31 00:02:41;;;;;;;0.20;0.20;;;;;;;;;;6220734;28;20018;-81
2024/01/31 00:05:42;;;;;;;0.30;0.30;;;;;;;;;;6226831;28;20030;-81
2024/01/31 00:08:42;;;;;;;0.20;0.20;;;;;;;;;;6237205;28;20069;-81
2024/01/31 00:11:42;;;;;;;0.20;0.20;;;;;;;;;;6242880;28;20028;-81
2024/01/31 00:14:44;;;;;;;0.20;0.20;;;;;;;;;;6242472;28;20028;-81
2024/01/31 00:17:44;;;;;;;0.20;0.20;;;;;;;;;;6243321;28;20040;-81
2024/01/31 00:20:45;;;;;;;0.23;0.23;;;;;;;;;;6242462;28;20033;-81
2024/01/31 00:23:46;;;;;;;0.20;0.20;;;;;;;;;;6244037;28;20026;-81
2024/01/31 00:26:46;;;;;;;0.20;0.20;;;;;;;;;;6243429;28;20018;-85
2024/01/31 00:29:46;;;;;;;0.20;0.20;;;;;;;;;;6225180;28;20041;-84
2024/01/31 00:32:46;;;;;;;0.30;0.30;;;;;;;;;;6242897;28;20014;-84
2024/01/31 00:35:46;;;;;;;0.20;0.20;;;;;;;;;;6243020;28;20484;-85
2024/01/31 00:38:47;;;;;;;0.20;0.20;;;;;;;;;;6242401;28;20562;-84
2024/01/31 00:41:47;;;;;;;0.20;0.20;;;;;;;;;;6242903;28;20099;-84
2024/01/31 00:44:50;;;;;;;0.20;0.20;;;;;;;;;;6224893;28;20456;-84
2024/01/31 00:47:50;;;;;;;0.20;0.20;;;;;;;;;;6242619;28;20376;-84
2024/01/31 00:50:50;;;;;;;0.20;0.20;;;;;;;;;;6242364;28;20383;-85
2024/01/31 00:53:50;;;;;;;0.20;0.20;;;;;;;;;;6242638;28;20022;-84
2024/01/31 00:56:51;;;;;;;0.20;0.20;;;;;;;;;;6242104;28;20029;-84
2024/01/31 00:59:51;;;;;;;0.20;0.20;;;;;;;;;;6242810;28;20021;-84
2024/01/31 01:02:51;;;;;;;0.30;0.30;;;;;;;;;;6242050;28;20037;-85
2024/01/31 01:05:51;;;;;;;0.20;0.20;;;;;;;;;;6224279;28;20025;-85
2024/01/31 01:08:52;;;;;;;0.20;0.20;;;;;;;;;;6221878;28;20564;-85
2024/01/31 01:11:52;;;;;;;0.20;0.20;;;;;;;;;;6216891;28;20045;-84
2024/01/31 01:14:53;;;;;;;0.20;0.20;;;;;;;;;;6217260;28;20040;-85
2024/01/31 01:17:53;;;;;;;0.20;0.20;;;;;;;;;;6217407;28;20108;-85
2024/01/31 01:20:53;;;;;;;0.20;0.20;;;;;;;;;;6219697;28;20436;-85
2024/01/31 01:23:53;;;;;;;0.20;0.20;;;;;;;;;;6209905;28;20033;-85
2024/01/31 01:26:54;;;;;;;0.20;0.20;;;;;;;;;;6217904;28;20018;-85
2024/01/31 01:29:54;;;;;;;0.20;0.20;;;;;;;;;;6201316;28;20033;-85
2024/01/31 01:32:54;;;;;;;0.20;0.20;;;;;;;;;;6212815;28;20025;-84
2024/01/31 01:35:54;;;;;;;0.20;0.20;;;;;;;;;;6200612;28;20018;-84
2024/01/31 01:38:54;;;;;;;0.20;0.20;;;;;;;;;;6206358;28;20032;-85
2024/01/31 01:41:56;;;;;;;0.20;0.20;;;;;;;;;;6217459;28;20071;-84
2024/01/31 01:44:56;;;;;;;0.20;0.20;;;;;;;;;;6216751;28;20053;-85
2024/01/31 01:47:56;;;;;;;0.20;0.20;;;;;;;;;;6215728;28;20395;-84
2024/01/31 01:50:57;;;;;;;0.20;0.20;;;;;;;;;;6217821;28;20530;-85
2024/01/31 01:53:57;;;;;;;0.20;0.20;;;;;;;;;;6217164;28;20022;-84
2024/01/31 01:56:58;;;;;;;0.20;0.20;;;;;;;;;;6215956;28;20101;-85
2024/01/31 01:59:59;;;;;;;0.20;0.20;;;;;;;;;;6216716;28;20026;-86
2024/01/31 02:03:00;;;;;;;0.20;0.20;;;;;;;;;;6204767;28;20026;-85
2024/01/31 02:06:00;;;;;;;0.20;0.20;;;;;;;;;;6205690;28;20030;-84
2024/01/31 02:09:01;;;;;;;0.20;0.20;;;;;;;;;;6237566;28;20128;-85
2024/01/31 02:12:01;;;;;;;0.20;0.20;;;;;;;;;;6241980;28;20025;-85
2024/01/31 02:15:01;;;;;;;0.20;0.20;;;;;;;;;;6215458;28;20036;-84
2024/01/31 02:18:02;;;;;;;0.20;0.20;;;;;;;;;;6241463;28;20025;-81
2024/01/31 02:21:02;;;;;;;0.20;0.20;;;;;;;;;;6242409;28;20025;-81
2024/01/31 02:24:02;;;;;;;0.20;0.20;;;;;;;;;;6244312;28;20579;-81
2024/01/31 02:27:04;;;;;;;0.20;0.20;;;;;;;;;;6246042;28;20021;-81
2024/01/31 02:30:05;;;;;;;0.20;0.20;;;;;;;;;;6245861;28;20024;-81
2024/01/31 02:33:06;;;;;;;0.20;0.20;;;;;;;;;;6245297;28;20029;-81
2024/01/31 02:36:06;;;;;;;0.20;0.20;;;;;;;;;;6245555;28;20033;-81
2024/01/31 02:39:06;;;;;;;0.20;0.20;;;;;;;;;;6240415;28;20024;-81
2024/01/31 02:42:06;;;;;;;0.20;0.20;;;;;;;;;;6244581;28;20095;-81
2024/01/31 02:45:07;;;;;;;0.20;0.20;;;;;;;;;;6242687;28;20579;-81
2024/01/31 02:48:08;;;;;;;0.20;0.20;;;;;;;;;;6241581;28;20100;-81
2024/01/31 02:51:08;;;;;;;0.25;0.25;;;;;;;;;;6244561;28;20022;-81
2024/01/31 02:54:08;;;;;;;0.20;0.20;;;;;;;;;;6241796;28;20557;-81
2024/01/31 02:57:08;;;;;;;0.20;0.20;;;;;;;;;;6245175;28;20071;-80
2024/01/31 03:00:11;;;;;;;0.20;0.20;;;;;;;;;;6244055;28;20130;-79
2024/01/31 03:03:12;;;;;;;0.20;0.20;;;;;;;;;;6245164;28;20022;-80
2024/01/31 03:06:12;;;;;;;0.20;0.20;;;;;;;;;;6240224;28;20079;-79
2024/01/31 03:09:12;;;;;;;0.20;0.20;;;;;;;;;;6244647;28;20045;-80
2024/01/31 03:12:12;;;;;;;0.20;0.20;;;;;;;;;;6244257;28;20095;-80
2024/01/31 03:15:13;;;;;;;0.20;0.20;;;;;;;;;;6241377;28;20036;-80
2024/01/31 03:18:13;;;;;;;0.20;0.20;;;;;;;;;;6238880;28;20021;-80
2024/01/31 03:21:13;;;;;;;0.30;0.30;;;;;;;;;;6243548;28;20017;-80
2024/01/31 03:24:15;;;;;;;0.20;0.20;;;;;;;;;;6241942;28;20105;-81
2024/01/31 03:27:15;;;;;;;0.20;0.20;;;;;;;;;;6241762;28;20100;-81
2024/01/31 03:30:16;;;;;;;0.20;0.20;;;;;;;;;;6244411;28;20043;-81
2024/01/31 03:33:16;;;;;;;0.20;0.20;;;;;;;;;;6242621;28;20023;-81
2024/01/31 03:36:16;;;;;;;0.20;0.20;;;;;;;;;;6244766;28;20025;-84
2024/01/31 03:39:18;;;;;;;0.20;0.20;;;;;;;;;;6234870;28;20048;-84
2024/01/31 03:42:19;;;;;;;0.20;0.20;;;;;;;;;;6226679;28;20024;-83
2024/01/31 03:45:20;;;;;;;0.20;0.20;;;;;;;;;;6243857;28;20018;-84
2024/01/31 03:48:20;;;;;;;0.20;0.20;;;;;;;;;;6243509;28;20025;-84
2024/01/31 03:51:22;;;;;;;0.20;0.20;;;;;;;;;;6240895;28;20120;-84
2024/01/31 03:54:22;;;;;;;0.20;0.20;;;;;;;;;;6244014;28;20079;-85
2024/01/31 03:57:22;;;;;;;0.20;0.20;;;;;;;;;;6236143;28;20286;-82
2024/01/31 04:00:23;;;;;;;0.20;0.20;;;;;;;;;;6243737;28;20131;-81
2024/01/31 04:03:23;;;;;;;0.30;0.30;;;;;;;;;;6238629;28;20471;-82
2024/01/31 04:06:23;;;;;;;0.20;0.20;;;;;;;;;;6228108;28;20058;-82
2024/01/31 04:09:23;;;;;;;0.20;0.20;;;;;;;;;;6228466;28;20100;-81
2024/01/31 04:12:23;;;;;;;0.20;0.20;;;;;;;;;;6243192;28;20096;-81
2024/01/31 04:15:24;;;;;;;0.20;0.20;;;;;;;;;;6239103;28;20388;-82
2024/01/31 04:18:24;;;;;;;0.20;0.20;;;;;;;;;;6224855;28;20479;-82
2024/01/31 04:21:25;;;;;;;0.20;0.20;;;;;;;;;;6235317;28;20514;-81
2024/01/31 04:24:25;;;;;;;0.20;0.20;;;;;;;;;;6235235;28;20026;-81
2024/01/31 04:27:25;;;;;;;0.20;0.20;;;;;;;;;;6218483;28;20498;-81
2024/01/31 04:30:27;;;;;;;0.20;0.20;;;;;;;;;;6242090;28;20025;-81
2024/01/31 04:33:27;;;;;;;0.20;0.20;;;;;;;;;;6241140;28;20024;-82
2024/01/31 04:36:27;;;;;;;0.20;0.20;;;;;;;;;;6242777;28;20030;-81
2024/01/31 04:39:28;;;;;;;0.20;0.20;;;;;;;;;;6238147;28;20025;-81
2024/01/31 04:42:28;;;;;;;0.20;0.20;;;;;;;;;;6227713;28;20033;-81
2024/01/31 04:45:28;;;;;;;0.20;0.20;;;;;;;;;;6235296;28;20029;-81
2024/01/31 04:48:28;;;;;;;0.20;0.20;;;;;;;;;;6232128;28;20057;-81
2024/01/31 04:51:28;;;;;;;0.20;0.20;;;;;;;;;;6238362;28;20180;-81
2024/01/31 04:54:29;;;;;;;0.20;0.20;;;;;;;;;;6238588;28;20018;-81
2024/01/31 04:57:29;;;;;;;0.20;0.20;;;;;;;;;;6241282;28;20032;-81
2024/01/31 05:00:29;;;;;;;0.27;0.27;;;;;;;;;;6241340;28;20021;-81
2024/01/31 05:03:30;;;;;;;0.20;0.20;;;;;;;;;;6241950;28;20112;-82
2024/01/31 05:06:30;;;;;;;0.20;0.20;;;;;;;;;;6241883;28;20018;-85
2024/01/31 05:09:31;;;;;;;0.20;0.20;;;;;;;;;;6224021;28;20025;-85
2024/01/31 05:12:31;;;;;;;0.20;0.20;;;;;;;;;;6224174;28;20045;-85
2024/01/31 05:15:31;;;;;;;0.20;0.20;;;;;;;;;;6241190;28;20047;-86
2024/01/31 05:18:31;;;;;;;0.20;0.20;;;;;;;;;;6233534;28;20384;-86
2024/01/31 05:21:32;;;;;;;0.20;0.20;;;;;;;;;;6241633;28;20506;-86
2024/01/31 05:24:32;;;;;;;0.20;0.20;;;;;;;;;;6230403;28;20021;-86
2024/01/31 05:27:32;;;;;;;0.20;0.20;;;;;;;;;;6241675;28;20385;-86
2024/01/31 05:30:33;;;;;;;0.20;0.20;;;;;;;;;;6241170;28;20128;-86
2024/01/31 05:33:34;;;;;;;0.20;0.20;;;;;;;;;;6241187;28;20031;-87
2024/01/31 05:36:34;;;;;;;0.25;0.25;;;;;;;;;;6214447;28;20033;-87
2024/01/31 05:39:35;;;;;;;0.20;0.20;;;;;;;;;;6241196;28;20029;-88
2024/01/31 05:42:35;;;;;;;0.20;0.20;;;;;;;;;;6241631;28;20076;-87
2024/01/31 05:45:35;;;;;;;0.20;0.20;;;;;;;;;;6237987;28;20588;-88
2024/01/31 05:48:36;;;;;;;0.20;0.20;;;;;;;;;;6242081;28;20513;-87
2024/01/31 05:51:36;;;;;;;0.20;0.20;;;;;;;;;;6240492;28;20384;-87
2024/01/31 05:54:38;;;;;;;0.20;0.20;;;;;;;;;;6240135;28;20503;-87
2024/01/31 05:57:38;;;;;;;0.20;0.20;;;;;;;;;;6241827;28;20021;-86
2024/01/31 06:00:38;;;;;;;0.20;0.20;;;;;;;;;;6243413;28;20887;-86
2024/01/31 06:03:39;;;;;;;0.20;0.20;;;;;;;;;;6246217;28;20037;-85
2024/01/31 06:06:39;;;;;;;0.20;0.20;;;;;;;;;;6243563;28;20021;-84
2024/01/31 06:09:39;;;;;;;0.10;0.10;;;;;;;;;;6245062;28;20048;-85
2024/01/31 06:12:39;;;;;;;0.20;0.20;;;;;;;;;;6235045;28;20388;-84
2024/01/31 06:15:40;;;;;;;0.20;0.20;;;;;;;;;;6246170;28;20062;-82
2024/01/31 06:18:40;;;;;;;0.20;0.20;;;;;;;;;;6242894;28;20022;-83
2024/01/31 06:21:40;;;;;;;0.20;0.20;;;;;;;;;;6241787;28;20055;-83
2024/01/31 06:24:40;;;;;;;0.20;0.20;;;;;;;;;;6226831;28;20116;-83
2024/01/31 06:27:41;;;;;;;0.20;0.20;;;;;;;;;;6243577;28;20560;-83
2024/01/31 06:30:44;;;;;;;0.20;0.20;;;;;;;;;;6243175;28;20468;-83
2024/01/31 06:33:45;;;;;;;0.20;0.20;;;;;;;;;;6227429;28;20358;-82
2024/01/31 06:36:45;;;;;;;0.20;0.20;;;;;;;;;;6245478;28;20108;-82
2024/01/31 06:39:45;;;;;;;0.20;0.20;;;;;;;;;;6239901;28;20084;-82
2024/01/31 06:42:46;;;;;;;0.20;0.20;;;;;;;;;;6239187;28;20393;-82
2024/01/31 06:45:47;;;;;;;0.20;0.20;;;;;;;;;;6244518;28;20017;-82
2024/01/31 06:48:47;;;;;;;0.20;0.20;;;;;;;;;;6244571;28;20075;-81
2024/01/31 06:51:48;;;;;;;0.20;0.20;;;;;;;;;;6244725;28;20017;-84
2024/01/31 06:54:48;;;;;;;0.20;0.20;;;;;;;;;;6225012;28;20021;-84
2024/01/31 06:57:48;;;;;;;0.20;0.20;;;;;;;;;;6243318;28;20053;-82
2024/01/31 07:00:48;;;;;;;0.20;0.20;;;;;;;;;;6244021;28;20500;-82
2024/01/31 07:03:48;;;;;;;0.20;0.20;;;;;;;;;;6244391;28;20029;-82
2024/01/31 07:06:49;;;;;;;0.20;0.20;;;;;;;;;;6240204;28;20057;-81
2024/01/31 07:09:49;;;;;;;0.20;0.20;;;;;;;;;;6224135;28;20040;-82
2024/01/31 07:12:52;;;;;;;0.20;0.20;;;;;;;;;;6234838;28;20018;-81
2024/01/31 07:15:53;;;;;;;0.20;0.20;;;;;;;;;;6235196;28;20128;-82
2024/01/31 07:18:54;;;;;;;0.20;0.20;;;;;;;;;;6242036;28;20022;-84
2024/01/31 07:21:56;;;;;;;0.20;0.20;;;;;;;;;;6239044;28;20156;-84
2024/01/31 07:24:56;;;;;;;0.20;0.20;;;;;;;;;;6242399;28;20029;-82
2024/01/31 07:27:56;;;;;;;0.20;0.20;;;;;;;;;;6244623;28;20067;-80
2024/01/31 07:30:57;;;;;;;0.20;0.20;;;;;;;;;;6238413;28;20484;-80
2024/01/31 07:33:57;;;;;;;0.20;0.20;;;;;;;;;;6243146;28;20021;-80
2024/01/31 07:36:57;;;;;;;0.20;0.20;;;;;;;;;;6239016;28;20021;-82
2024/01/31 07:39:58;;;;;;;0.20;0.20;;;;;;;;;;6220549;28;20033;-82
2024/01/31 07:42:58;;;;;;;0.20;0.20;;;;;;;;;;6241273;28;20026;-81
2024/01/31 07:45:58;;;;;;;0.20;0.20;;;;;;;;;;6219472;28;20067;-81
2024/01/31 07:48:59;;;;;;;0.20;0.20;;;;;;;;;;6241290;28;20472;-81
2024/01/31 07:51:59;;;;;;;0.20;0.20;;;;;;;;;;6242223;28;20056;-82
2024/01/31 07:54:59;;;;;;;0.20;0.20;;;;;;;;;;6242366;28;20035;-82
2024/01/31 07:57:59;;;;;;;0.20;0.20;;;;;;;;;;6239010;28;20388;-80
2024/01/31 08:01:00;;;;;;;0.20;0.20;;;;;;;;;;6240410;28;20400;-79
2024/01/31 08:04:00;;;;;;;0.20;0.20;;;;;;;;;;6223741;28;20495;-79
2024/01/31 08:07:00;;;;;;;0.20;0.20;;;;;;;;;;6230817;28;20109;-79
2024/01/31 08:10:00;;;;;;;0.20;0.20;;;;;;;;;;6237376;28;20033;-79
2024/01/31 08:13:01;;;;;;;0.20;0.20;;;;;;;;;;6240918;28;20052;-79
2024/01/31 08:16:01;;;;;;;0.17;0.17;;;;;;;;;;6234739;28;20025;-79
2024/01/31 08:19:02;;;;;;;0.20;0.20;;;;;;;;;;6241666;28;20036;-79
2024/01/31 08:22:03;;;;;;;0.20;0.20;;;;;;;;;;6241054;28;20545;-79
2024/01/31 08:25:04;;;;;;;0.20;0.20;;;;;;;;;;6224079;28;20021;-79
2024/01/31 08:28:04;;;;;;;0.20;0.20;;;;;;;;;;6241669;28;20020;-79
2024/01/31 08:31:04;;;;;;;0.20;0.20;;;;;;;;;;6222953;28;20045;-79
2024/01/31 08:34:05;;;;;;;0.10;0.10;;;;;;;;;;6240882;28;20022;-80
2024/01/31 08:37:05;;;;;;;0.20;0.20;;;;;;;;;;6240222;28;20025;-80
2024/01/31 08:40:06;;;;;;;0.20;0.20;;;;;;;;;;6238467;28;20029;-79
2024/01/31 08:43:07;;;;;;;0.10;0.10;;;;;;;;;;6241482;28;20076;-79
2024/01/31 08:46:07;;;;;;;0.20;0.20;;;;;;;;;;6232899;28;20430;-78
2024/01/31 08:49:07;;;;;;;0.20;0.20;;;;;;;;;;6240592;28;20025;-77
2024/01/31 08:52:07;;;;;;;0.20;0.20;;;;;;;;;;6245901;28;20022;-77
2024/01/31 08:55:09;;;;;;;0.20;0.20;;;;;;;;;;6234588;28;20040;-77
2024/01/31 08:58:09;;;;;;;0.20;0.20;;;;;;;;;;6236840;28;20447;-77
2024/01/31 09:01:09;;;;;;;0.20;0.20;;;;;;;;;;6241201;28;20033;-76
2024/01/31 09:04:09;;;;;;;0.20;0.20;;;;;;;;;;6240866;28;20035;-77
2024/01/31 09:07:10;;;;;;;0.20;0.20;;;;;;;;;;6230740;28;20116;-77
2024/01/31 09:10:11;;;;;;;0.20;0.20;;;;;;;;;;6240632;28;20522;-77
2024/01/31 09:13:11;;;;;;;0.20;0.20;;;;;;;;;;6233214;28;20041;-77
2024/01/31 09:16:11;;;;;;;0.20;0.20;;;;;;;;;;6238829;28;20026;-77
2024/01/31 09:19:11;;;;;;;0.20;0.20;;;;;;;;;;6222970;28;20021;-76
2024/01/31 09:22:12;;;;;;;0.20;0.20;;;;;;;;;;6237280;28;20492;-76
2024/01/31 09:25:14;;;;;;;0.20;0.20;;;;;;;;;;6231753;28;20065;-76
2024/01/31 09:28:14;;;;;;;0.20;0.20;;;;;;;;;;6237386;28;20014;-76
2024/01/31 09:31:33;;;;;;;0.20;0.20;;;;;;;;;;6241360;28;20029;-76
2024/01/31 09:34:33;;;;;;;0.20;0.20;;;;;;;;;;6246327;28;20022;-76
2024/01/31 09:37:33;;;;;;;0.20;0.20;;;;;;;;;;6242111;28;20092;-76
2024/01/31 09:40:34;;;;;;;0.20;0.20;;;;;;;;;;6246571;28;20097;-78
2024/01/31 09:43:34;;;;;;;0.20;0.20;;;;;;;;;;6245833;28;20483;-78
2024/01/31 09:46:35;;;;;;;0.20;0.20;;;;;;;;;;6234157;28;20108;-76
2024/01/31 09:49:35;;;;;;;0.20;0.20;;;;;;;;;;6246523;28;20013;-76
2024/01/31 09:52:38;;;;;;;0.20;0.20;;;;;;;;;;6227669;28;20048;-76
2024/01/31 09:55:38;;;;;;;0.20;0.20;;;;;;;;;;6235553;28;20116;-78
2024/01/31 09:58:39;;;;;;;0.20;0.20;;;;;;;;;;6241709;28;20079;-78
2024/01/31 10:01:39;;;;;;;0.20;0.20;;;;;;;;;;6246154;28;20013;-78
2024/01/31 10:04:40;;;;;;;0.17;0.17;;;;;;;;;;6244965;28;20056;-78
2024/01/31 10:07:40;;;;;;;0.13;0.13;;;;;;;;;;6245458;28;20485;-80
2024/01/31 10:10:41;;;;;;;0.20;0.20;;;;;;;;;;6240693;28;20969;-79
2024/01/31 10:13:41;;;;;;;0.20;0.20;;;;;;;;;;6246310;28;20033;-79
2024/01/31 10:16:42;;;;;;;0.20;0.20;;;;;;;;;;6246252;28;20045;-80
2024/01/31 10:19:42;;;;;;;0.20;0.20;;;;;;;;;;6243743;28;20023;-80
2024/01/31 10:22:45;;;;;;;0.20;0.20;;;;;;;;;;6245551;28;20014;-80
2024/01/31 10:25:46;;;;;;;0.20;0.20;;;;;;;;;;6227110;28;20013;-80
2024/01/31 10:28:46;;;;;;;0.13;0.13;;;;;;;;;;6244533;28;20523;-80
2024/01/31 10:31:46;;;;;;;0.20;0.20;;;;;;;;;;6242002;28;20022;-80
2024/01/31 10:34:47;;;;;;;0.20;0.20;;;;;;;;;;6228243;28;20032;-80
2024/01/31 10:37:48;;;;;;;0.20;0.20;;;;;;;;;;6241513;28;20014;-80
2024/01/31 10:40:49;;;;;;;0.20;0.20;;;;;;;;;;6243876;28;20029;-79
2024/01/31 10:43:50;;;;;;;0.20;0.20;;;;;;;;;;6242858;28;20436;-79
2024/01/31 10:46:51;;;;;;;0.20;0.20;;;;;;;;;;6243341;28;20021;-79
2024/01/31 10:49:52;;;;;;;0.20;0.20;;;;;;;;;;6245535;28;20030;-79
2024/01/31 10:52:53;;;;;;;0.20;0.20;;;;;;;;;;6226771;28;20053;-79
2024/01/31 10:55:53;;;;;;;0.20;0.20;;;;;;;;;;6245214;28;20029;-79
2024/01/31 10:58:56;;;;;;;0.20;0.20;;;;;;;;;;6238978;28;20534;-79
2024/01/31 11:01:58;;;;;;;0.20;0.20;;;;;;;;;;6244236;28;20103;-79
2024/01/31 11:05:03;;;;;;;0.20;0.20;;;;;;;;;;6243845;28;20028;-79
2024/01/31 11:08:04;;;;;;;0.20;0.20;;;;;;;;;;6242069;28;20454;-79
2024/01/31 11:11:08;;;;;;;0.20;0.20;;;;;;;;;;6244383;28;20009;-79
2024/01/31 11:14:09;;;;;;;0.20;0.20;;;;;;;;;;6243296;28;20033;-79
2024/01/31 11:17:17;;;;;;;0.20;0.20;;;;;;;;;;6237172;28;20029;-79
2024/01/31 11:20:18;;;;;;;0.20;0.20;;;;;;;;;;6243785;28;20377;-79
2024/01/31 11:23:23;;;;;;;0.20;0.20;;;;;;;;;;6238474;28;20029;-79
2024/01/31 11:26:35;;;;;;;0.20;0.20;;;;;;;;;;6235000;28;20026;-80
2024/01/31 11:29:35;;;;;;;0.20;0.20;;;;;;;;;;6243651;28;20376;-80
2024/01/31 11:32:36;;;;;;;0.20;0.20;;;;;;;;;;6235761;28;20021;-80
2024/01/31 11:35:36;;;;;;;0.13;0.13;;;;;;;;;;6242892;28;20554;-80
2024/01/31 11:38:36;;;;;;;0.20;0.20;;;;;;;;;;6236190;28;20373;-79
2024/01/31 11:41:37;;;;;;;0.20;0.20;;;;;;;;;;6242647;28;20024;-80
2024/01/31 11:44:37;;;;;;;0.20;0.20;;;;;;;;;;6228341;28;20017;-80
2024/01/31 11:47:38;;;;;;;0.20;0.20;;;;;;;;;;6241039;28;20048;-80
2024/01/31 11:50:39;;;;;;;0.20;0.20;;;;;;;;;;6243579;28;20017;-80
2024/01/31 11:53:39;;;;;;;0.20;0.20;;;;;;;;;;6221694;28;20051;-80
2024/01/31 11:56:39;;;;;;;0.20;0.20;;;;;;;;;;6220832;28;20477;-80
2024/01/31 11:59:40;;;;;;;0.20;0.20;;;;;;;;;;6243065;28;20369;-80
2024/01/31 12:02:40;;;;;;;0.20;0.20;;;;;;;;;;6242381;28;20021;-80
2024/01/31 12:05:40;;;;;;;0.20;0.20;;;;;;;;;;6237603;28;20029;-80
2024/01/31 12:08:45;;;;;;;0.20;0.20;;;;;;;;;;6239230;28;20045;-81
2024/01/31 12:11:46;;;;;;;0.20;0.20;;;;;;;;;;6238846;28;20014;-80
2024/01/31 12:14:46;;;;;;;0.20;0.20;;;;;;;;;;6239346;28;20075;-80
2024/01/31 12:17:46;;;;;;;0.20;0.20;;;;;;;;;;6242864;28;20022;-80
2024/01/31 12:20:46;;;;;;;0.30;0.30;;;;;;;;;;6225648;28;20041;-80
2024/01/31 12:23:48;;;;;;;0.20;0.20;;;;;;;;;;6225219;28;20056;-81
2024/01/31 12:26:48;;;;;;;0.20;0.20;;;;;;;;;;6230158;28;20045;-81
2024/01/31 12:29:49;;;;;;;0.20;0.20;;;;;;;;;;6235064;28;20024;-81
2024/01/31 12:32:49;;;;;;;0.20;0.20;;;;;;;;;;6229761;28;20160;-81
2024/01/31 12:35:49;;;;;;;0.20;0.20;;;;;;;;;;6216212;28;20057;-80
2024/01/31 12:38:49;;;;;;;0.20;0.20;;;;;;;;;;6242476;28;20683;-79
2024/01/31 12:41:52;;;;;;;0.10;0.10;;;;;;;;;;6243245;28;20049;-79
2024/01/31 12:44:52;;;;;;;0.20;0.20;;;;;;;;;;6242636;28;20029;-79
2024/01/31 12:47:52;;;;;;;0.20;0.20;;;;;;;;;;6224605;28;20893;-79
2024/01/31 12:50:53;;;;;;;0.10;0.10;;;;;;;;;;6242220;28;20017;-79
2024/01/31 12:53:53;;;;;;;0.20;0.20;;;;;;;;;;6243053;28;20024;-79
2024/01/31 12:56:53;;;;;;;0.20;0.20;;;;;;;;;;6219990;28;20021;-81
2024/01/31 12:59:54;;;;;;;0.20;0.20;;;;;;;;;;6228764;28;20018;-81
2024/01/31 13:02:54;;;;;;;0.10;0.10;;;;;;;;;;6242062;28;20100;-81
2024/01/31 13:05:54;;;;;;;0.20;0.20;;;;;;;;;;6242375;28;20021;-81
2024/01/31 13:08:54;;;;;;;0.20;0.20;;;;;;;;;;6241384;28;20120;-81
2024/01/31 13:11:55;;;;;;;0.10;0.10;;;;;;;;;;6224050;28;20179;-80
2024/01/31 13:14:55;;;;;;;0.20;0.20;;;;;;;;;;6220393;28;20021;-81
2024/01/31 13:17:55;;;;;;;0.20;0.20;;;;;;;;;;6237734;28;20039;-81
2024/01/31 13:20:55;;;;;;;0.10;0.10;;;;;;;;;;6241473;28;20090;-81
2024/01/31 13:23:56;;;;;;;0.20;0.20;;;;;;;;;;6240493;28;20044;-79
2024/01/31 13:26:56;;;;;;;0.20;0.20;;;;;;;;;;6241834;28;20029;-79
2024/01/31 13:29:56;;;;;;;0.20;0.20;;;;;;;;;;6241748;28;20334;-82
2024/01/31 13:32:57;;;;;;;0.20;0.20;;;;;;;;;;6223424;28;20057;-81
2024/01/31 13:35:57;;;;;;;0.20;0.20;;;;;;;;;;6225061;28;20064;-80
2024/01/31 13:38:58;;;;;;;0.10;0.10;;;;;;;;;;6228987;28;20435;-81
2024/01/31 13:42:02;;;;;;;0.20;0.20;;;;;;;;;;6240654;28;20144;-80
2024/01/31 13:45:02;;;;;;;0.20;0.20;;;;;;;;;;6241910;28;20035;-80
2024/01/31 13:48:04;;;;;;;0.17;0.17;;;;;;;;;;6241633;28;20028;-80
2024/01/31 13:51:04;;;;;;;0.10;0.10;;;;;;;;;;6241801;28;20017;-80
2024/01/31 13:54:04;;;;;;;0.20;0.20;;;;;;;;;;6240017;28;20032;-80
2024/01/31 13:57:06;;;;;;;0.10;0.10;;;;;;;;;;6207793;28;20087;-78
2024/01/31 14:00:06;;;;;;;0.10;0.10;;;;;;;;;;6241153;28;20380;-78
2024/01/31 14:03:07;;;;;;;0.20;0.20;;;;;;;;;;6234051;28;20036;-78
2024/01/31 14:06:07;;;;;;;0.20;0.20;;;;;;;;;;6234042;28;20106;-80
2024/01/31 14:09:08;;;;;;;0.20;0.20;;;;;;;;;;6241193;28;20061;-80
2024/01/31 14:12:09;;;;;;;0.20;0.20;;;;;;;;;;6239796;28;20033;-80
2024/01/31 14:15:09;;;;;;;0.20;0.20;;;;;;;;;;6240965;28;20029;-80
2024/01/31 14:18:09;;;;;;;0.20;0.20;;;;;;;;;;6211947;28;20052;-80
2024/01/31 14:21:13;;;;;;;0.20;0.20;;;;;;;;;;6243102;28;20025;-80
2024/01/31 14:24:14;;;;;;;0.20;0.20;;;;;;;;;;6227697;28;20033;-80
2024/01/31 14:27:15;;;;;;;0.20;0.20;;;;;;;;;;6245911;28;20048;-80
2024/01/31 14:30:15;;;;;;;0.20;0.20;;;;;;;;;;6245865;28;20025;-80
2024/01/31 14:33:15;;;;;;;0.10;0.10;;;;;;;;;;6241166;28;20030;-81
2024/01/31 14:36:15;;;;;;;0.20;0.20;;;;;;;;;;6236777;28;20031;-81
2024/01/31 14:39:16;;;;;;;0.20;0.20;;;;;;;;;;6220067;28;20036;-81
2024/01/31 14:42:17;;;;;;;0.10;0.10;;;;;;;;;;6236558;28;20036;-80
2024/01/31 14:45:17;;;;;;;0.10;0.10;;;;;;;;;;6232045;28;20636;-80
2024/01/31 14:48:18;;;;;;;0.20;0.20;;;;;;;;;;6229537;28;20021;-80
2024/01/31 14:51:18;;;;;;;0.20;0.20;;;;;;;;;;6237586;28;20052;-81
2024/01/31 14:54:18;;;;;;;0.20;0.20;;;;;;;;;;6224420;28;20159;-81
2024/01/31 14:57:19;;;;;;;0.20;0.20;;;;;;;;;;6235253;28;20021;-82
2024/01/31 15:00:19;;;;;;;0.20;0.20;;;;;;;;;;6226329;28;20037;-81
2024/01/31 15:03:20;;;;;;;0.20;0.20;;;;;;;;;;6240693;28;20025;-81
2024/01/31 15:06:20;;;;;;;0.20;0.20;;;;;;;;;;6243293;28;20017;-79
2024/01/31 15:09:20;;;;;;;0.20;0.20;;;;;;;;;;6243570;28;20076;-79
2024/01/31 15:12:23;;;;;;;0.20;0.20;;;;;;;;;;6222197;28;20026;-79
2024/01/31 15:15:23;;;;;;;0.20;0.20;;;;;;;;;;6237286;28;20353;-78
2024/01/31 15:18:23;;;;;;;0.20;0.20;;;;;;;;;;6235958;28;20034;-81
2024/01/31 15:21:23;;;;;;;0.20;0.20;;;;;;;;;;6237633;28;20040;-81
2024/01/31 15:24:24;;;;;;;0.20;0.20;;;;;;;;;;6236759;28;20188;-81
2024/01/31 15:27:24;;;;;;;0.20;0.20;;;;;;;;;;6234045;28;20024;-81
2024/01/31 15:30:26;;;;;;;0.20;0.20;;;;;;;;;;6227788;28;20084;-81
2024/01/31 15:33:29;;;;;;;0.20;0.20;;;;;;;;;;6222248;28;20021;-81
2024/01/31 15:36:29;;;;;;;0.20;0.20;;;;;;;;;;6237755;28;20040;-81
2024/01/31 15:39:29;;;;;;;0.20;0.20;;;;;;;;;;6242732;28;20056;-81
2024/01/31 15:42:29;;;;;;;0.20;0.20;;;;;;;;;;6243324;28;20025;-81
2024/01/31 15:45:29;;;;;;;0.20;0.20;;;;;;;;;;6243424;28;20073;-81
2024/01/31 15:48:30;;;;;;;0.20;0.20;;;;;;;;;;6231761;28;20050;-81
2024/01/31 15:51:40;;;;;;;0.20;0.20;;;;;;;;;;6239331;28;20562;-81
2024/01/31 15:54:40;;;;;;;0.20;0.20;;;;;;;;;;6244938;28;20021;-81
2024/01/31 15:57:40;;;;;;;0.10;0.10;;;;;;;;;;6245280;28;20029;-81
2024/01/31 16:00:40;;;;;;;0.20;0.20;;;;;;;;;;6230467;28;20465;-81
2024/01/31 16:03:41;;;;;;;0.20;0.20;;;;;;;;;;6233254;28;20482;-79
2024/01/31 16:06:56;;;;;;;0.20;0.20;;;;;;;;;;6228726;28;20756;-79
2024/01/31 16:09:56;;;;;;;0.20;0.20;;;;;;;;;;6219661;28;20091;-79
2024/01/31 16:12:57;;;;;;;0.20;0.20;;;;;;;;;;6232955;28;20053;-79
2024/01/31 16:15:57;;;;;;;0.20;0.20;;;;;;;;;;6219777;28;20040;-79
2024/01/31 16:18:57;;;;;;;0.20;0.20;;;;;;;;;;6234287;28;20057;-79
2024/01/31 16:21:58;;;;;;;0.20;0.20;;;;;;;;;;6231105;28;20044;-79
2024/01/31 16:24:58;;;;;;;0.20;0.20;;;;;;;;;;6228758;28;20029;-79
2024/01/31 16:27:58;;;;;;;0.20;0.20;;;;;;;;;;6242698;28;20464;-79
2024/01/31 16:30:58;;;;;;;0.20;0.20;;;;;;;;;;6242398;28;20109;-79
2024/01/31 16:33:59;;;;;;;0.20;0.20;;;;;;;;;;6236952;28;20018;-79
2024/01/31 16:36:59;;;;;;;0.20;0.20;;;;;;;;;;6238009;28;20040;-79
2024/01/31 16:39:59;;;;;;;0.20;0.20;;;;;;;;;;6236348;28;20029;-79
2024/01/31 16:42:59;;;;;;;0.20;0.20;;;;;;;;;;6231809;28;20025;-79
2024/01/31 16:46:00;;;;;;;0.20;0.20;;;;;;;;;;6216696;28;20033;-78
2024/01/31 16:49:00;;;;;;;0.20;0.20;;;;;;;;;;6229174;28;20026;-78
2024/01/31 16:52:01;;;;;;;0.20;0.20;;;;;;;;;;6237444;28;20083;-79
2024/01/31 16:55:01;;;;;;;0.20;0.20;;;;;;;;;;6240758;28;20021;-79
2024/01/31 16:58:02;;;;;;;0.20;0.20;;;;;;;;;;6234916;28;20476;-79
2024/01/31 17:01:02;;;;;;;0.20;0.20;;;;;;;;;;6242845;28;20029;-79
2024/01/31 17:04:02;;;;;;;0.20;0.20;;;;;;;;;;6223457;28;20033;-79
2024/01/31 17:07:03;;;;;;;0.30;0.30;;;;;;;;;;6224731;28;20049;-79
2024/01/31 17:10:03;;;;;;;0.20;0.20;;;;;;;;;;6240705;28;20476;-79
2024/01/31 17:13:03;;;;;;;0.20;0.20;;;;;;;;;;6233042;28;20053;-79
2024/01/31 17:16:04;;;;;;;0.20;0.20;;;;;;;;;;6216011;28;20387;-79
2024/01/31 17:19:04;;;;;;;0.20;0.20;;;;;;;;;;6239006;28;20100;-79
2024/01/31 17:22:04;;;;;;;0.20;0.20;;;;;;;;;;6237864;28;20365;-80
2024/01/31 17:25:06;;;;;;;0.20;0.20;;;;;;;;;;6222443;28;20029;-80
2024/01/31 17:28:07;;;;;;;0.20;0.20;;;;;;;;;;6225555;28;20060;-80
2024/01/31 17:31:07;;;;;;;0.10;0.10;;;;;;;;;;6237145;28;20056;-80
2024/01/31 17:34:07;;;;;;;0.20;0.20;;;;;;;;;;6233497;28;20034;-80
2024/01/31 17:37:08;;;;;;;0.20;0.20;;;;;;;;;;6231363;28;20103;-80
2024/01/31 17:40:08;;;;;;;0.20;0.20;;;;;;;;;;6240958;28;20041;-80
2024/01/31 17:43:08;;;;;;;0.20;0.20;;;;;;;;;;6241852;28;20021;-80
2024/01/31 17:46:09;;;;;;;0.20;0.20;;;;;;;;;;6230732;28;20536;-80
2024/01/31 17:49:09;;;;;;;0.20;0.20;;;;;;;;;;6238250;28;20026;-80
2024/01/31 17:52:09;;;;;;;0.20;0.20;;;;;;;;;;6241064;28;20029;-80
2024/01/31 17:55:11;;;;;;;0.20;0.20;;;;;;;;;;6240583;28;20021;-80
2024/01/31 17:58:11;;;;;;;0.20;0.20;;;;;;;;;;6235399;28;20404;-80
2024/01/31 18:01:11;;;;;;;0.20;0.20;;;;;;;;;;6241344;28;20122;-79
2024/01/31 18:04:11;;;;;;;0.20;0.20;;;;;;;;;;6245852;28;20032;-80